createdAt,value
2023-05-01T00:00:54.715Z,63.26
2023-05-01T00:01:54.710Z,63.37
2023-05-01T00:02:54.811Z,63.47
2023-05-01T00:03:54.856Z,63.98
2023-05-01T00:04:54.745Z,63.57
2023-05-01T00:05:54.669Z,63.47
2023-05-01T00:06:54.693Z,63.68
2023-05-01T00:07:54.666Z,63.88
2023-05-01T00:08:54.634Z,64.01
2023-05-01T00:09:54.877Z,64.53
2023-05-01T00:10:54.599Z,64.01
2023-05-01T00:11:54.621Z,64.42
2023-05-01T00:12:54.577Z,64.32
2023-05-01T00:13:54.596Z,63.81
2023-05-01T00:14:53.574Z,63.60
2023-05-01T00:15:54.612Z,63.70
2023-05-01T00:16:54.600Z,63.81
2023-05-01T00:17:54.602Z,63.40
2023-05-01T00:18:54.509Z,63.70
2023-05-01T00:19:55.123Z,63.81
2023-05-01T00:20:54.491Z,63.70
2023-05-01T00:21:54.519Z,63.60
2023-05-01T00:22:54.477Z,63.29
2023-05-01T00:23:54.478Z,63.60
2023-05-01T00:24:54.460Z,63.70
2023-05-01T00:25:54.500Z,63.60
2023-05-01T00:26:54.438Z,63.81
2023-05-01T00:27:54.446Z,63.70
2023-05-01T00:28:54.412Z,63.91
2023-05-01T00:29:54.771Z,63.91
2023-05-01T00:30:54.391Z,63.81
2023-05-01T00:31:54.430Z,64.01
2023-05-01T00:32:54.402Z,64.14
2023-05-01T00:33:54.375Z,63.94
2023-05-01T00:34:54.343Z,63.73
2023-05-01T00:35:54.358Z,64.04
2023-05-01T00:36:54.324Z,63.94
2023-05-01T00:37:54.365Z,63.53
2023-05-01T00:38:54.297Z,63.53
2023-05-01T00:39:54.656Z,63.64
2023-05-01T00:40:54.287Z,63.73
2023-05-01T00:41:54.302Z,64.22
2023-05-01T00:42:54.266Z,63.32
2023-05-01T00:43:54.290Z,63.64
2023-05-01T00:44:54.237Z,63.50
2023-05-01T00:45:54.286Z,63.20
2023-05-01T00:46:54.227Z,63.20
2023-05-01T00:47:54.316Z,63.20
2023-05-01T00:48:54.202Z,62.88
2023-05-01T00:49:54.603Z,63.09
2023-05-01T00:50:54.176Z,63.09
2023-05-01T00:51:54.243Z,62.58
2023-05-01T00:52:54.165Z,62.48
2023-05-01T00:53:54.175Z,62.37
2023-05-01T00:54:54.126Z,62.48
2023-05-01T00:55:54.160Z,62.68
2023-05-01T00:56:54.105Z,62.88
2023-05-01T00:57:54.145Z,62.58
2023-05-01T00:58:54.085Z,62.88
2023-05-01T00:59:54.302Z,62.48
2023-05-01T01:00:54.129Z,62.37
2023-05-01T01:01:56.344Z,62.17
2023-05-01T01:02:54.086Z,62.07
2023-05-01T01:03:54.118Z,61.66
2023-05-01T01:04:54.173Z,62.07
2023-05-01T01:05:54.024Z,61.96
2023-05-01T01:06:54.033Z,62.17
2023-05-01T01:07:54.001Z,61.66
2023-05-01T01:08:54.003Z,61.35
2023-05-01T01:09:54.128Z,61.55
2023-05-01T01:10:54.002Z,61.55
2023-05-01T01:11:53.940Z,61.35
2023-05-01T01:12:53.964Z,61.25
2023-05-01T01:13:53.939Z,60.84
2023-05-01T01:14:53.947Z,61.35
2023-05-01T01:15:53.901Z,61.76
2023-05-01T01:16:53.927Z,61.55
2023-05-01T01:17:53.942Z,61.27
2023-05-01T01:18:53.893Z,61.15
2023-05-01T01:19:54.058Z,60.86
2023-05-01T01:20:53.842Z,60.97
2023-05-01T01:21:53.861Z,60.66
2023-05-01T01:22:53.820Z,61.04
2023-05-01T01:23:53.856Z,60.94
2023-05-01T01:24:53.802Z,61.04
2023-05-01T01:25:53.806Z,60.94
2023-05-01T01:26:53.780Z,60.53
2023-05-01T01:27:53.788Z,60.86
2023-05-01T01:28:53.758Z,60.76
2023-05-01T01:29:54.011Z,60.56
2023-05-01T01:30:53.762Z,60.46
2023-05-01T01:31:53.745Z,60.35
2023-05-01T01:32:53.759Z,60.46
2023-05-01T01:33:53.722Z,60.76
2023-05-01T01:34:53.721Z,60.56
2023-05-01T01:35:53.719Z,60.46
2023-05-01T01:36:53.697Z,60.15
2023-05-01T01:37:53.693Z,60.56
2023-05-01T01:38:53.652Z,60.35
2023-05-01T01:39:54.032Z,60.46
2023-05-01T01:40:53.645Z,60.05
2023-05-01T01:41:53.638Z,60.56
2023-05-01T01:42:53.605Z,60.25
2023-05-01T01:43:53.614Z,60.56
2023-05-01T01:44:53.585Z,60.66
2023-05-01T01:45:53.673Z,60.66
2023-05-01T01:46:53.581Z,60.56
2023-05-01T01:47:53.627Z,60.46
2023-05-01T01:48:53.539Z,61.07
2023-05-01T01:49:53.700Z,60.66
2023-05-01T01:50:53.520Z,60.76
2023-05-01T01:51:53.556Z,60.46
2023-05-01T01:52:53.500Z,60.46
2023-05-01T01:53:53.518Z,60.76
2023-05-01T01:54:53.486Z,61.27
2023-05-01T01:55:53.488Z,60.86
2023-05-01T01:56:53.474Z,60.76
2023-05-01T01:57:53.460Z,60.46
2023-05-01T01:58:53.446Z,60.86
2023-05-01T01:59:53.627Z,60.97
2023-05-01T02:00:53.412Z,60.66
2023-05-01T02:01:53.539Z,61.07
2023-05-01T02:02:53.464Z,61.38
2023-05-01T02:03:53.521Z,61.00
2023-05-01T02:04:53.367Z,61.10
2023-05-01T02:05:53.391Z,61.30
2023-05-01T02:06:53.368Z,60.79
2023-05-01T02:07:53.380Z,61.20
2023-05-01T02:08:53.324Z,61.10
2023-05-01T02:09:53.475Z,60.69
2023-05-01T02:10:53.322Z,61.30
2023-05-01T02:11:53.335Z,61.20
2023-05-01T02:12:53.283Z,61.41
2023-05-01T02:13:53.327Z,61.10
2023-05-01T02:14:53.292Z,61.20
2023-05-01T02:15:53.327Z,61.30
2023-05-01T02:16:53.279Z,61.71
2023-05-01T02:17:53.379Z,61.41
2023-05-01T02:18:53.229Z,61.20
2023-05-01T02:19:53.479Z,61.61
2023-05-01T02:20:53.194Z,61.30
2023-05-01T02:21:53.210Z,61.71
2023-05-01T02:22:53.188Z,61.30
2023-05-01T02:23:53.176Z,61.51
2023-05-01T02:24:53.166Z,61.82
2023-05-01T02:25:53.190Z,61.41
2023-05-01T02:26:53.129Z,61.30
2023-05-01T02:27:53.145Z,61.51
2023-05-01T02:28:53.120Z,61.41
2023-05-01T02:29:53.250Z,61.54
2023-05-01T02:30:53.107Z,61.74
2023-05-01T02:31:53.142Z,61.85
2023-05-01T02:32:53.117Z,61.74
2023-05-01T02:33:53.076Z,61.64
2023-05-01T02:34:53.072Z,61.33
2023-05-01T02:35:53.092Z,61.30
2023-05-01T02:36:53.032Z,61.54
2023-05-01T02:37:53.052Z,61.85
2023-05-01T02:38:53.010Z,61.44
2023-05-01T02:39:53.006Z,61.23
2023-05-01T02:40:52.992Z,61.44
2023-05-01T02:41:53.008Z,61.33
2023-05-01T02:42:52.970Z,61.54
2023-05-01T02:43:52.971Z,61.54
2023-05-01T02:44:52.939Z,61.64
2023-05-01T02:45:53.012Z,61.64
2023-05-01T02:46:52.972Z,61.54
2023-05-01T02:47:53.000Z,61.64
2023-05-01T02:48:52.894Z,61.74
2023-05-01T02:49:52.909Z,62.05
2023-05-01T02:50:52.872Z,61.95
2023-05-01T02:51:52.891Z,61.74
2023-05-01T02:52:52.874Z,62.05
2023-05-01T02:53:52.877Z,61.85
2023-05-01T02:54:52.833Z,61.85
2023-05-01T02:55:52.852Z,61.98
2023-05-01T02:56:52.814Z,62.08
2023-05-01T02:57:52.828Z,62.18
2023-05-01T02:58:52.789Z,62.18
2023-05-01T02:59:52.812Z,62.29
2023-05-01T03:00:52.803Z,61.98
2023-05-01T03:01:52.836Z,61.87
2023-05-01T03:02:52.826Z,61.98
2023-05-01T03:03:52.848Z,62.49
2023-05-01T03:04:52.721Z,62.18
2023-05-01T03:05:52.754Z,62.18
2023-05-01T03:06:52.746Z,62.70
2023-05-01T03:07:52.723Z,62.70
2023-05-01T03:08:52.682Z,62.80
2023-05-01T03:09:52.701Z,62.39
2023-05-01T03:10:52.692Z,62.39
2023-05-01T03:11:52.698Z,62.70
2023-05-01T03:12:52.670Z,62.59
2023-05-01T03:13:52.650Z,62.52
2023-05-01T03:14:52.614Z,62.83
2023-05-01T03:15:52.691Z,62.73
2023-05-01T03:16:52.703Z,62.73
2023-05-01T03:17:52.789Z,62.62
2023-05-01T03:18:52.572Z,63.03
2023-05-01T03:19:52.589Z,63.24
2023-05-01T03:20:52.553Z,63.03
2023-05-01T03:21:52.555Z,62.83
2023-05-01T03:22:52.548Z,63.03
2023-05-01T03:23:52.498Z,62.93
2023-05-01T03:24:52.509Z,63.24
2023-05-01T03:25:52.512Z,63.13
2023-05-01T03:26:52.455Z,62.93
2023-05-01T03:27:54.816Z,62.93
2023-05-01T03:28:52.425Z,62.83
2023-05-01T03:29:52.411Z,63.03
2023-05-01T03:30:52.457Z,63.03
2023-05-01T03:31:52.481Z,63.44
2023-05-01T03:32:52.430Z,63.13
2023-05-01T03:33:52.366Z,63.17
2023-05-01T03:34:52.377Z,63.17
2023-05-01T03:35:52.403Z,63.37
2023-05-01T03:36:52.341Z,63.37
2023-05-01T03:37:52.339Z,63.47
2023-05-01T03:38:52.297Z,63.37
2023-05-01T03:39:52.339Z,62.85
2023-05-01T03:40:52.281Z,62.96
2023-05-01T03:41:52.298Z,63.06
2023-05-01T03:42:52.251Z,63.27
2023-05-01T03:43:52.311Z,62.96
2023-05-01T03:44:52.245Z,63.27
2023-05-01T03:45:52.310Z,63.17
2023-05-01T03:46:52.208Z,62.85
2023-05-01T03:47:52.272Z,63.06
2023-05-01T03:48:52.203Z,62.85
2023-05-01T03:49:52.200Z,62.96
2023-05-01T03:50:52.165Z,62.96
2023-05-01T03:51:52.178Z,62.75
2023-05-01T03:52:52.148Z,62.85
2023-05-01T03:53:52.152Z,62.75
2023-05-01T03:54:52.136Z,62.75
2023-05-01T03:55:52.141Z,63.03
2023-05-01T03:56:52.101Z,63.24
2023-05-01T03:57:52.129Z,63.17
2023-05-01T03:58:52.093Z,62.65
2023-05-01T03:59:52.125Z,62.75
2023-05-01T04:00:52.063Z,62.96
2023-05-01T04:01:52.076Z,63.37
2023-05-01T04:02:52.179Z,62.96
2023-05-01T04:03:52.208Z,63.17
2023-05-01T04:04:52.050Z,62.96
2023-05-01T04:05:52.033Z,63.17
2023-05-01T04:06:52.050Z,62.96
2023-05-01T04:07:52.016Z,63.06
2023-05-01T04:08:51.978Z,63.06
2023-05-01T04:09:51.994Z,63.06
2023-05-01T04:10:51.961Z,63.68
2023-05-01T04:11:51.976Z,62.96
2023-05-01T04:12:51.948Z,62.75
2023-05-01T04:13:51.955Z,62.96
2023-05-01T04:14:51.939Z,63.06
2023-05-01T04:15:51.959Z,63.06
2023-05-01T04:16:51.901Z,63.47
2023-05-01T04:17:51.916Z,62.85
2023-05-01T04:18:51.873Z,62.96
2023-05-01T04:19:51.874Z,63.17
2023-05-01T04:20:51.913Z,63.06
2023-05-01T04:21:51.863Z,63.17
2023-05-01T04:22:51.824Z,62.75
2023-05-01T04:23:51.851Z,62.45
2023-05-01T04:24:51.830Z,62.65
2023-05-01T04:25:51.809Z,62.34
2023-05-01T04:26:51.791Z,62.96
2023-05-01T04:27:51.821Z,62.75
2023-05-01T04:28:51.765Z,62.21
2023-05-01T04:29:51.781Z,62.14
2023-05-01T04:30:51.753Z,61.90
2023-05-01T04:31:51.784Z,62.21
2023-05-01T04:32:51.750Z,62.21
2023-05-01T04:33:51.732Z,62.31
2023-05-01T04:34:51.690Z,62.31
2023-05-01T04:35:51.782Z,62.41
2023-05-01T04:36:51.675Z,61.90
2023-05-01T04:37:51.676Z,61.80
2023-05-01T04:38:51.655Z,61.70
2023-05-01T04:39:51.680Z,61.29
2023-05-01T04:40:51.630Z,61.70
2023-05-01T04:41:51.648Z,61.60
2023-05-01T04:42:51.613Z,61.39
2023-05-01T04:43:51.608Z,61.90
2023-05-01T04:44:51.584Z,62.01
2023-05-01T04:45:51.616Z,61.08
2023-05-01T04:46:51.642Z,60.88
2023-05-01T04:47:51.617Z,61.08
2023-05-01T04:48:51.544Z,61.29
2023-05-01T04:49:51.566Z,61.39
2023-05-01T04:50:51.514Z,61.08
2023-05-01T04:51:51.553Z,61.18
2023-05-01T04:52:51.523Z,61.16
2023-05-01T04:53:51.509Z,61.16
2023-05-01T04:54:51.484Z,60.85
2023-05-01T04:55:51.578Z,60.75
2023-05-01T04:56:51.473Z,60.75
2023-05-01T04:57:51.466Z,60.95
2023-05-01T04:58:51.428Z,60.23
2023-05-01T04:59:51.452Z,60.03
2023-05-01T05:00:51.414Z,60.44
2023-05-01T05:01:51.536Z,60.33
2023-05-01T05:02:51.495Z,60.72
2023-05-01T05:03:51.869Z,60.61
2023-05-01T05:04:51.392Z,60.51
2023-05-01T05:05:51.393Z,60.31
2023-05-01T05:06:51.437Z,59.89
2023-05-01T05:07:51.378Z,60.51
2023-05-01T05:08:51.323Z,60.61
2023-05-01T05:09:51.341Z,60.61
2023-05-01T05:10:51.333Z,60.49
2023-05-01T05:11:51.326Z,59.15
2023-05-01T05:12:51.967Z,59.36
2023-05-01T05:13:51.300Z,59.66
2023-05-01T05:14:51.267Z,59.46
2023-05-01T05:15:51.297Z,59.12
2023-05-01T05:16:51.318Z,59.33
2023-05-01T05:17:51.263Z,59.23
2023-05-01T05:18:51.235Z,59.23
2023-05-01T05:19:51.239Z,59.12
2023-05-01T05:20:51.199Z,59.43
2023-05-01T05:21:51.200Z,59.33
2023-05-01T05:22:51.192Z,58.38
2023-05-01T05:23:51.174Z,58.48
2023-05-01T05:24:51.151Z,59.41
2023-05-01T05:25:51.154Z,58.89
2023-05-01T05:26:51.161Z,58.89
2023-05-01T05:27:51.119Z,58.17
2023-05-01T05:28:51.192Z,58.58
2023-05-01T05:29:51.106Z,59.00
2023-05-01T05:30:51.108Z,59.20
2023-05-01T05:31:51.095Z,58.56
2023-05-01T05:32:51.129Z,58.97
2023-05-01T05:33:51.115Z,58.35
2023-05-01T05:34:51.093Z,57.94
2023-05-01T05:35:51.042Z,58.15
2023-05-01T05:36:51.051Z,58.15
2023-05-01T05:37:51.006Z,58.25
2023-05-01T05:38:51.073Z,58.25
2023-05-01T05:39:51.003Z,57.84
2023-05-01T05:40:51.002Z,58.04
2023-05-01T05:41:50.971Z,57.20
2023-05-01T05:42:50.973Z,57.81
2023-05-01T05:43:50.954Z,57.30
2023-05-01T05:44:51.001Z,57.10
2023-05-01T05:45:50.948Z,57.20
2023-05-01T05:46:50.947Z,57.92
2023-05-01T05:47:50.982Z,57.71
2023-05-01T05:48:50.911Z,57.40
2023-05-01T05:49:50.887Z,57.28
2023-05-01T05:50:50.904Z,57.89
2023-05-01T05:51:50.873Z,57.17
2023-05-01T05:52:50.864Z,57.07
2023-05-01T05:53:50.879Z,57.89
2023-05-01T05:54:50.885Z,57.28
2023-05-01T05:55:50.847Z,57.07
2023-05-01T05:56:50.826Z,57.35
2023-05-01T05:57:50.800Z,57.35
2023-05-01T05:58:50.813Z,56.43
2023-05-01T05:59:50.781Z,56.74
2023-05-01T06:00:50.828Z,56.61
2023-05-01T06:01:50.754Z,55.99
2023-05-01T06:02:50.855Z,56.10
2023-05-01T06:03:50.787Z,55.79
2023-05-01T06:04:50.756Z,56.10
2023-05-01T06:05:50.805Z,56.61
2023-05-01T06:06:50.788Z,56.07
2023-05-01T06:07:50.729Z,57.29
2023-05-01T06:08:50.730Z,57.29
2023-05-01T06:09:50.678Z,56.58
2023-05-01T06:10:50.704Z,56.58
2023-05-01T06:11:50.656Z,55.43
2023-05-01T06:12:55.225Z,56.25
2023-05-01T06:13:50.626Z,56.56
2023-05-01T06:14:50.652Z,56.25
2023-05-01T06:15:50.647Z,55.54
2023-05-01T06:16:50.680Z,56.02
2023-05-01T06:17:50.612Z,56.84
2023-05-01T06:18:50.607Z,56.02
2023-05-01T06:19:50.705Z,55.20
2023-05-01T06:20:50.579Z,55.79
2023-05-01T06:21:50.567Z,55.79
2023-05-01T06:22:50.594Z,54.97
2023-05-01T06:23:50.546Z,55.18
2023-05-01T06:24:50.628Z,55.69
2023-05-01T06:25:50.495Z,54.97
2023-05-01T06:26:50.687Z,55.07
2023-05-01T06:27:50.497Z,53.92
2023-05-01T06:28:50.501Z,53.24
2023-05-01T06:29:50.449Z,53.31
2023-05-01T06:30:50.476Z,53.83
2023-05-01T06:31:50.474Z,53.92
2023-05-01T06:32:50.535Z,53.62
2023-05-01T06:33:50.417Z,54.33
2023-05-01T06:34:50.441Z,54.33
2023-05-01T06:35:50.384Z,55.15
2023-05-01T06:36:50.471Z,55.33
2023-05-01T06:37:50.360Z,54.31
2023-05-01T06:38:50.399Z,54.61
2023-05-01T06:39:50.352Z,54.69
2023-05-01T06:40:50.362Z,54.69
2023-05-01T06:41:50.322Z,54.39
2023-05-01T06:42:50.397Z,54.28
2023-05-01T06:43:50.306Z,54.36
2023-05-01T06:44:50.292Z,54.57
2023-05-01T06:45:50.284Z,54.57
2023-05-01T06:46:50.462Z,53.75
2023-05-01T06:47:50.331Z,53.22
2023-05-01T06:48:50.277Z,53.52
2023-05-01T06:49:50.277Z,52.05
2023-05-01T06:50:50.295Z,52.94
2023-05-01T06:51:50.207Z,52.94
2023-05-01T06:52:50.305Z,52.03
2023-05-01T06:53:50.259Z,52.25
2023-05-01T06:54:50.276Z,52.03
2023-05-01T06:55:50.171Z,52.03
2023-05-01T06:56:50.184Z,51.01
2023-05-01T06:57:50.131Z,50.81
2023-05-01T06:58:50.194Z,51.72
2023-05-01T06:59:50.488Z,51.64
2023-05-01T07:00:50.396Z,51.56
2023-05-01T07:01:50.138Z,51.97
2023-05-01T07:02:50.188Z,52.28
2023-05-01T07:03:50.086Z,52.28
2023-05-01T07:04:50.096Z,52.48
2023-05-01T07:05:50.098Z,52.68
2023-05-01T07:06:50.162Z,52.50
2023-05-01T07:07:57.989Z,52.71
2023-05-01T07:08:50.055Z,52.50
2023-05-01T07:09:50.007Z,53.02
2023-05-01T07:10:50.025Z,54.33
2023-05-01T07:11:49.984Z,53.72
2023-05-01T07:12:50.003Z,53.32
2023-05-01T07:13:49.992Z,53.09
2023-05-01T07:14:49.987Z,53.29
2023-05-01T07:15:51.105Z,52.66
2023-05-01T07:16:50.008Z,53.27
2023-05-01T07:17:49.992Z,52.12
2023-05-01T07:18:49.952Z,51.49
2023-05-01T07:19:49.903Z,51.59
2023-05-01T07:20:49.933Z,51.06
2023-05-01T07:21:49.890Z,50.56
2023-05-01T07:22:49.882Z,49.49
2023-05-01T07:23:49.877Z,49.06
2023-05-01T07:24:49.874Z,49.34
2023-05-01T07:25:49.831Z,48.00
2023-05-01T07:26:49.852Z,47.88
2023-05-01T07:27:49.824Z,46.97
2023-05-01T07:28:49.832Z,46.87
2023-05-01T07:29:49.790Z,46.44
2023-05-01T07:30:49.821Z,46.34
2023-05-01T07:31:49.806Z,46.84
2023-05-01T07:32:49.802Z,46.64
2023-05-01T07:33:51.034Z,47.17
2023-05-01T07:34:49.750Z,46.67
2023-05-01T07:35:49.727Z,46.36
2023-05-01T07:36:49.733Z,46.64
2023-05-01T07:37:49.702Z,47.35
2023-05-01T07:38:49.710Z,46.95
2023-05-01T07:39:49.676Z,47.78
2023-05-01T07:40:49.700Z,48.08
2023-05-01T07:41:49.670Z,48.59
2023-05-01T07:42:50.128Z,47.50
2023-05-01T07:43:49.626Z,47.72
2023-05-01T07:44:49.654Z,48.13
2023-05-01T07:45:49.666Z,47.72
2023-05-01T07:46:49.631Z,49.65
2023-05-01T07:47:49.649Z,49.44
2023-05-01T07:48:49.602Z,48.94
2023-05-01T07:49:49.562Z,49.73
2023-05-01T07:50:49.583Z,49.32
2023-05-01T07:51:49.542Z,48.39
2023-05-01T07:52:49.558Z,48.16
2023-05-01T07:53:49.545Z,48.24
2023-05-01T07:54:49.552Z,47.23
2023-05-01T07:55:49.499Z,46.62
2023-05-01T07:56:49.911Z,45.71
2023-05-01T07:57:49.491Z,46.80
2023-05-01T07:58:49.487Z,46.91
2023-05-01T07:59:49.462Z,46.48
2023-05-01T08:00:49.473Z,46.17
2023-05-01T08:01:49.435Z,45.25
2023-05-01T08:02:49.493Z,44.34
2023-05-01T08:03:51.100Z,45.53
2023-05-01T08:04:49.470Z,45.83
2023-05-01T08:05:49.403Z,43.59
2023-05-01T08:06:49.528Z,43.18
2023-05-01T08:07:49.371Z,44.07
2023-05-01T08:08:49.391Z,44.57
2023-05-01T08:09:49.344Z,43.85
2023-05-01T08:10:49.371Z,41.93
2023-05-01T08:11:49.322Z,41.95
2023-05-01T08:12:49.344Z,44.78
2023-05-01T08:13:49.300Z,44.90
2023-05-01T08:14:49.334Z,44.29
2023-05-01T08:15:49.329Z,44.70
2023-05-01T08:16:49.364Z,42.88
2023-05-01T08:17:49.366Z,42.68
2023-05-01T08:18:49.277Z,43.59
2023-05-01T08:19:49.241Z,41.35
2023-05-01T08:20:49.266Z,42.66
2023-05-01T08:21:49.239Z,42.94
2023-05-01T08:22:49.252Z,39.81
2023-05-01T08:23:49.201Z,40.72
2023-05-01T08:24:49.202Z,40.62
2023-05-01T08:25:49.176Z,41.75
2023-05-01T08:26:49.202Z,42.05
2023-05-01T08:27:49.168Z,42.54
2023-05-01T08:28:49.193Z,40.72
2023-05-01T08:29:49.132Z,40.72
2023-05-01T08:30:48.147Z,40.42
2023-05-01T08:31:49.135Z,42.84
2023-05-01T08:32:49.190Z,41.02
2023-05-01T08:33:49.099Z,40.32
2023-05-01T08:34:49.096Z,39.11
2023-05-01T08:35:49.077Z,40.34
2023-05-01T08:36:49.116Z,39.63
2023-05-01T08:37:49.065Z,39.61
2023-05-01T08:38:49.049Z,39.92
2023-05-01T08:39:49.026Z,40.22
2023-05-01T08:40:49.028Z,40.42
2023-05-01T08:41:49.014Z,42.03
2023-05-01T08:42:49.013Z,42.24
2023-05-01T08:43:48.997Z,41.73
2023-05-01T08:44:48.984Z,41.55
2023-05-01T08:45:48.976Z,41.75
2023-05-01T08:46:49.041Z,41.75
2023-05-01T08:47:49.103Z,41.14
2023-05-01T08:48:48.954Z,40.44
2023-05-01T08:49:48.916Z,40.44
2023-05-01T08:50:48.936Z,39.61
2023-05-01T08:51:48.932Z,39.51
2023-05-01T08:52:48.909Z,39.11
2023-05-01T08:53:48.889Z,39.81
2023-05-01T08:54:48.899Z,40.84
2023-05-01T08:55:48.850Z,41.05
2023-05-01T08:56:48.853Z,40.03
2023-05-01T08:57:48.833Z,40.66
2023-05-01T08:58:48.832Z,41.27
2023-05-01T08:59:48.830Z,41.36
2023-05-01T09:00:48.812Z,42.18
2023-05-01T09:01:48.833Z,41.27
2023-05-01T09:02:48.877Z,41.06
2023-05-01T09:03:48.831Z,39.85
2023-05-01T09:04:48.792Z,40.25
2023-05-01T09:05:48.745Z,40.48
2023-05-01T09:06:48.786Z,41.39
2023-05-01T09:07:48.758Z,41.59
2023-05-01T09:08:48.753Z,41.99
2023-05-01T09:09:48.718Z,42.49
2023-05-01T09:10:48.704Z,41.28
2023-05-01T09:11:48.676Z,41.69
2023-05-01T09:12:48.696Z,42.09
2023-05-01T09:13:48.662Z,41.89
2023-05-01T09:14:48.682Z,41.89
2023-05-01T09:15:48.630Z,43.71
2023-05-01T09:16:48.689Z,42.19
2023-05-01T09:17:48.645Z,42.47
2023-05-01T09:18:48.630Z,41.97
2023-05-01T09:19:48.615Z,42.88
2023-05-01T09:20:48.592Z,40.96
2023-05-01T09:21:48.582Z,40.56
2023-05-01T09:22:48.584Z,40.66
2023-05-01T09:23:48.545Z,41.87
2023-05-01T09:24:48.579Z,41.87
2023-05-01T09:25:50.761Z,41.77
2023-05-01T09:26:48.558Z,42.07
2023-05-01T09:27:48.509Z,42.18
2023-05-01T09:28:48.533Z,42.07
2023-05-01T09:29:48.473Z,42.07
2023-05-01T09:30:48.498Z,42.68
2023-05-01T09:31:48.485Z,42.18
2023-05-01T09:32:48.480Z,42.07
2023-05-01T09:33:48.437Z,42.68
2023-05-01T09:34:48.454Z,43.30
2023-05-01T09:35:48.425Z,42.29
2023-05-01T09:36:48.477Z,41.69
2023-05-01T09:37:48.409Z,41.28
2023-05-01T09:38:48.378Z,41.18
2023-05-01T09:39:48.404Z,41.59
2023-05-01T09:40:48.360Z,42.19
2023-05-01T09:41:48.384Z,42.70
2023-05-01T09:42:48.349Z,42.49
2023-05-01T09:43:48.353Z,42.29
2023-05-01T09:44:48.320Z,42.11
2023-05-01T09:45:48.347Z,42.52
2023-05-01T09:46:48.303Z,43.60
2023-05-01T09:47:48.353Z,44.11
2023-05-01T09:48:48.284Z,42.70
2023-05-01T09:49:48.411Z,41.99
2023-05-01T09:50:48.256Z,42.29
2023-05-01T09:51:48.259Z,42.49
2023-05-01T09:52:48.238Z,43.30
2023-05-01T09:53:48.258Z,42.40
2023-05-01T09:54:48.211Z,43.30
2023-05-01T09:55:48.218Z,43.80
2023-05-01T09:56:48.203Z,43.12
2023-05-01T09:57:48.204Z,43.43
2023-05-01T09:58:48.171Z,44.13
2023-05-01T09:59:48.225Z,43.32
2023-05-01T10:00:48.193Z,42.90
2023-05-01T10:01:48.270Z,42.90
2023-05-01T10:02:48.340Z,42.60
2023-05-01T10:03:48.310Z,42.19
2023-05-01T10:04:48.103Z,42.19
2023-05-01T10:05:48.104Z,42.49
2023-05-01T10:06:48.140Z,42.80
2023-05-01T10:07:54.607Z,42.61
2023-05-01T10:08:48.055Z,42.61
2023-05-01T10:09:48.071Z,43.02
2023-05-01T10:10:48.037Z,42.92
2023-05-01T10:11:48.082Z,43.02
2023-05-01T10:12:48.014Z,42.52
2023-05-01T10:13:48.054Z,42.32
2023-05-01T10:14:48.024Z,42.41
2023-05-01T10:15:48.028Z,42.82
2023-05-01T10:16:48.004Z,42.64
2023-05-01T10:17:48.011Z,43.38
2023-05-01T10:18:47.949Z,44.29
2023-05-01T10:19:47.984Z,43.89
2023-05-01T10:20:47.933Z,44.12
2023-05-01T10:21:47.933Z,44.82
2023-05-01T10:22:47.938Z,45.03
2023-05-01T10:23:47.905Z,45.23
2023-05-01T10:24:47.893Z,45.51
2023-05-01T10:25:47.935Z,45.10
2023-05-01T10:26:47.861Z,46.12
2023-05-01T10:27:47.868Z,45.61
2023-05-01T10:28:47.843Z,46.30
2023-05-01T10:29:47.874Z,45.69
2023-05-01T10:30:47.869Z,46.70
2023-05-01T10:31:47.878Z,46.09
2023-05-01T10:32:47.819Z,46.60
2023-05-01T10:33:47.817Z,48.42
2023-05-01T10:34:47.769Z,45.79
2023-05-01T10:35:47.791Z,45.99
2023-05-01T10:36:47.766Z,47.41
2023-05-01T10:37:47.757Z,48.11
2023-05-01T10:38:47.723Z,49.63
2023-05-01T10:39:47.749Z,47.00
2023-05-01T10:40:47.710Z,47.53
2023-05-01T10:41:47.722Z,50.99
2023-05-01T10:42:47.701Z,53.12
2023-05-01T10:43:47.704Z,50.21
2023-05-01T10:44:47.671Z,54.66
2023-05-01T10:45:47.708Z,56.38
2023-05-01T10:46:47.790Z,54.56
2023-05-01T10:47:47.746Z,57.32
2023-05-01T10:48:47.615Z,57.02
2023-05-01T10:49:47.638Z,58.36
2023-05-01T10:50:47.591Z,59.53
2023-05-01T10:51:47.604Z,61.90
2023-05-01T10:52:47.582Z,61.82
2023-05-01T10:53:47.578Z,63.04
2023-05-01T10:54:47.548Z,63.98
2023-05-01T10:55:47.558Z,66.83
2023-05-01T10:56:47.529Z,69.30
2023-05-01T10:57:47.553Z,69.60
2023-05-01T10:58:47.507Z,70.35
2023-05-01T10:59:47.520Z,70.07
2023-05-01T11:00:47.481Z,72.08
2023-05-01T11:01:47.602Z,78.28
2023-05-01T11:02:47.496Z,75.84
2023-05-01T11:03:47.478Z,76.69
2023-05-01T11:04:47.555Z,80.36
2023-05-01T11:05:47.460Z,81.48
2023-05-01T11:06:47.460Z,83.42
2023-05-01T11:07:47.422Z,79.95
2023-05-01T11:08:47.416Z,78.87
2023-05-01T11:09:47.405Z,80.09
2023-05-01T11:10:47.384Z,79.82
2023-05-01T11:11:47.381Z,80.78
2023-05-01T11:12:47.351Z,81.90
2023-05-01T11:13:47.380Z,80.88
2023-05-01T11:14:47.333Z,80.71
2023-05-01T11:15:47.337Z,81.84
2023-05-01T11:16:47.343Z,80.30
2023-05-01T11:17:47.345Z,81.98
2023-05-01T11:18:47.284Z,82.79
2023-05-01T11:19:47.312Z,84.83
2023-05-01T11:20:47.258Z,83.61
2023-05-01T11:21:47.285Z,85.24
2023-05-01T11:22:47.260Z,86.88
2023-05-01T11:23:47.266Z,87.29
2023-05-01T11:24:47.242Z,85.38
2023-05-01T11:25:47.231Z,86.82
2023-05-01T11:26:47.202Z,87.32
2023-05-01T11:27:47.207Z,87.98
2023-05-01T11:28:47.177Z,91.05
2023-05-01T11:29:47.186Z,89.31
2023-05-01T11:30:47.178Z,89.72
2023-05-01T11:31:47.208Z,89.92
2023-05-01T11:32:47.159Z,91.96
2023-05-01T11:33:47.134Z,88.43
2023-05-01T11:34:47.110Z,87.92
2023-05-01T11:35:47.118Z,88.84
2023-05-01T11:36:47.098Z,89.35
2023-05-01T11:37:47.120Z,91.03
2023-05-01T11:38:47.088Z,91.60
2023-05-01T11:39:47.075Z,90.17
2023-05-01T11:40:47.060Z,91.64
2023-05-01T11:41:47.096Z,92.21
2023-05-01T11:42:47.057Z,92.62
2023-05-01T11:43:47.067Z,91.60
2023-05-01T11:44:47.004Z,93.54
2023-05-01T11:45:47.042Z,95.59
2023-05-01T11:46:46.980Z,93.50
2023-05-01T11:47:47.066Z,94.62
2023-05-01T11:48:46.973Z,92.27
2023-05-01T11:49:46.983Z,91.29
2023-05-01T11:50:46.952Z,91.60
2023-05-01T11:51:47.074Z,92.72
2023-05-01T11:52:46.931Z,91.60
2023-05-01T11:53:46.923Z,92.62
2023-05-01T11:54:46.916Z,91.91
2023-05-01T11:55:46.909Z,93.33
2023-05-01T11:56:46.881Z,92.42
2023-05-01T11:57:46.902Z,92.58
2023-05-01T11:58:46.879Z,92.17
2023-05-01T11:59:46.878Z,91.86
2023-05-01T12:00:46.831Z,91.66
2023-05-01T12:01:46.856Z,91.66
2023-05-01T12:02:46.895Z,91.86
2023-05-01T12:03:46.891Z,90.33
2023-05-01T12:04:46.871Z,90.27
2023-05-01T12:05:46.811Z,89.56
2023-05-01T12:06:46.905Z,91.60
2023-05-01T12:07:46.788Z,89.86
2023-05-01T12:08:46.779Z,91.39
2023-05-01T12:09:46.788Z,91.29
2023-05-01T12:10:46.794Z,92.88
2023-05-01T12:11:46.732Z,92.68
2023-05-01T12:12:46.737Z,94.62
2023-05-01T12:13:46.713Z,95.44
2023-05-01T12:14:46.705Z,92.07
2023-05-01T12:15:46.751Z,93.19
2023-05-01T12:16:46.705Z,95.85
2023-05-01T12:17:46.737Z,95.90
2023-05-01T12:18:46.640Z,91.82
2023-05-01T12:19:46.662Z,92.17
2023-05-01T12:20:46.623Z,92.74
2023-05-01T12:21:46.623Z,93.76
2023-05-01T12:22:46.606Z,92.94
2023-05-01T12:23:46.649Z,92.64
2023-05-01T12:24:46.575Z,92.43
2023-05-01T12:25:46.589Z,91.11
2023-05-01T12:26:46.583Z,92.84
2023-05-01T12:27:46.575Z,93.76
2023-05-01T12:28:46.544Z,94.33
2023-05-01T12:29:46.550Z,95.25
2023-05-01T12:30:46.522Z,93.41
2023-05-01T12:31:46.542Z,92.29
2023-05-01T12:32:46.538Z,92.59
2023-05-01T12:33:46.515Z,92.19
2023-05-01T12:34:46.466Z,87.90
2023-05-01T12:35:46.481Z,86.88
2023-05-01T12:36:46.441Z,89.23
2023-05-01T12:37:46.446Z,90.25
2023-05-01T12:38:46.428Z,87.08
2023-05-01T12:39:46.437Z,87.90
2023-05-01T12:40:46.404Z,89.94
2023-05-01T12:41:46.408Z,89.08
2023-05-01T12:42:46.384Z,88.78
2023-05-01T12:43:46.394Z,91.63
2023-05-01T12:44:46.349Z,93.06
2023-05-01T12:45:46.369Z,92.55
2023-05-01T12:46:46.400Z,92.10
2023-05-01T12:47:46.353Z,91.59
2023-05-01T12:48:46.320Z,92.00
2023-05-01T12:49:46.317Z,92.00
2023-05-01T12:50:47.483Z,90.77
2023-05-01T12:51:46.318Z,88.32
2023-05-01T12:52:46.270Z,87.92